createdAt,value
2022-07-25T00:02:02.502Z,3.80
2022-07-25T00:04:30.409Z,4.30
2022-07-25T00:06:58.303Z,7.70
2022-07-25T00:09:26.045Z,4.90
2022-07-25T00:11:53.868Z,4.60
2022-07-25T00:14:21.815Z,5.30
2022-07-25T00:16:49.634Z,5.60
2022-07-25T00:19:18.477Z,5.40
2022-07-25T00:21:46.360Z,4.80
2022-07-25T00:24:14.213Z,4.40
2022-07-25T00:26:42.052Z,5.70
2022-07-25T00:29:09.922Z,4.50
2022-07-25T00:31:37.808Z,4.50
2022-07-25T00:34:06.148Z,5.10
2022-07-25T00:36:34.237Z,5.60
2022-07-25T00:39:02.273Z,5.00
2022-07-25T00:41:30.110Z,6.90
2022-07-25T00:43:58.059Z,6.50
2022-07-25T00:46:25.884Z,5.90
2022-07-25T00:48:55.027Z,5.40
2022-07-25T00:51:23.003Z,5.20
2022-07-25T00:53:50.892Z,6.30
2022-07-25T00:56:18.707Z,5.30
2022-07-25T00:58:46.691Z,5.50
2022-07-25T01:01:14.708Z,6.00
2022-07-25T01:03:42.492Z,6.20
2022-07-25T01:06:10.435Z,5.60
2022-07-25T01:08:38.893Z,5.40
2022-07-25T01:11:07.351Z,7.50
2022-07-25T01:13:35.144Z,6.60
2022-07-25T01:16:03.138Z,6.80
2022-07-25T01:18:31.146Z,7.00
2022-07-25T01:20:58.877Z,5.70
2022-07-25T01:23:28.797Z,5.60
2022-07-25T01:25:56.854Z,6.20
2022-07-25T01:28:24.643Z,6.30
2022-07-25T01:30:52.625Z,4.90
2022-07-25T01:33:21.898Z,6.10
2022-07-25T01:35:50.815Z,6.30
2022-07-25T01:38:18.830Z,5.10
2022-07-25T01:40:46.594Z,7.40
2022-07-25T01:43:14.337Z,7.40
2022-07-25T01:45:42.258Z,5.20
2022-07-25T01:48:10.326Z,5.40
2022-07-25T01:50:38.414Z,6.50
2022-07-25T01:53:06.207Z,6.80
2022-07-25T01:55:34.097Z,10.40
2022-07-25T01:58:01.893Z,6.10
2022-07-25T02:00:30.121Z,7.30
2022-07-25T02:03:16.731Z,7.30
2022-07-25T02:05:44.486Z,7.80
2022-07-25T02:08:12.315Z,6.70
2022-07-25T02:10:40.145Z,7.00
2022-07-25T02:13:07.972Z,7.60
2022-07-25T02:15:35.978Z,6.80
2022-07-25T02:18:04.061Z,6.70
2022-07-25T02:20:31.917Z,6.70
2022-07-25T02:22:59.686Z,7.00
2022-07-25T02:25:27.530Z,6.10
2022-07-25T02:27:55.346Z,7.90
2022-07-25T02:30:23.795Z,8.40
2022-07-25T02:32:52.334Z,7.90
2022-07-25T02:35:20.692Z,7.20
2022-07-25T02:37:48.474Z,12.60
2022-07-25T02:40:16.221Z,9.00
2022-07-25T02:42:44.050Z,8.10
2022-07-25T02:45:11.844Z,8.10
2022-07-25T02:47:39.797Z,7.80
2022-07-25T02:50:08.257Z,9.40
2022-07-25T02:52:36.138Z,11.00
2022-07-25T02:55:09.566Z,10.10
2022-07-25T02:57:37.786Z,12.10
2022-07-25T03:00:08.258Z,9.50
2022-07-25T03:02:36.080Z,8.20
2022-07-25T03:05:12.663Z,8.90
2022-07-25T03:07:42.960Z,8.60
2022-07-25T03:10:13.645Z,10.40
2022-07-25T03:12:43.437Z,8.70
2022-07-25T03:15:13.242Z,9.20
2022-07-25T03:17:42.208Z,8.00
2022-07-25T03:20:10.302Z,9.60
2022-07-25T03:22:38.204Z,9.70
2022-07-25T03:25:06.853Z,8.30
2022-07-25T03:27:43.884Z,6.80
2022-07-25T03:30:12.210Z,8.70
2022-07-25T03:32:40.874Z,10.30
2022-07-25T03:35:09.423Z,10.40
2022-07-25T03:37:37.241Z,11.40
2022-07-25T03:40:06.263Z,10.20
2022-07-25T03:42:35.628Z,9.90
2022-07-25T03:45:05.252Z,10.60
2022-07-25T03:47:33.256Z,9.60
2022-07-25T03:50:01.042Z,8.90
2022-07-25T03:52:28.802Z,8.80
2022-07-25T03:54:56.530Z,7.60
2022-07-25T03:57:24.290Z,10.50
2022-07-25T03:59:52.055Z,8.60
2022-07-25T04:02:19.903Z,10.00
2022-07-25T04:04:47.801Z,8.10
2022-07-25T04:07:15.746Z,8.90
2022-07-25T04:09:43.506Z,11.50
2022-07-25T04:12:11.234Z,7.80
2022-07-25T04:14:39.060Z,10.70
2022-07-25T04:17:06.941Z,10.00
2022-07-25T04:19:35.556Z,11.20
2022-07-25T04:22:04.495Z,7.70
2022-07-25T04:24:32.493Z,8.50
2022-07-25T04:27:00.285Z,12.00
2022-07-25T04:29:28.097Z,10.00
2022-07-25T04:31:55.987Z,11.00
2022-07-25T04:34:24.039Z,13.10
2022-07-25T04:36:51.796Z,10.90
2022-07-25T04:39:19.636Z,9.30
2022-07-25T04:41:47.608Z,8.90
2022-07-25T04:44:15.515Z,11.20
2022-07-25T04:46:43.354Z,9.90
2022-07-25T04:49:11.143Z,9.00
2022-07-25T04:51:39.104Z,10.00
2022-07-25T04:54:07.227Z,9.10
2022-07-25T04:56:35.391Z,9.90
2022-07-25T04:59:06.810Z,8.70
2022-07-25T05:01:36.299Z,9.80
2022-07-25T05:04:04.733Z,10.50
2022-07-25T05:06:33.256Z,9.00
2022-07-25T05:09:01.107Z,13.00
2022-07-25T05:11:28.861Z,13.20
2022-07-25T05:13:56.654Z,8.00
2022-07-25T05:16:25.523Z,7.70
2022-07-25T05:18:53.337Z,8.60
2022-07-25T05:21:21.125Z,9.50
2022-07-25T05:23:49.075Z,7.60
2022-07-25T05:26:16.805Z,7.40
2022-07-25T05:28:44.680Z,6.80
2022-07-25T05:31:12.445Z,8.10
2022-07-25T05:33:40.299Z,9.20
2022-07-25T05:36:09.094Z,9.20
2022-07-25T05:38:37.206Z,12.40
2022-07-25T05:41:05.109Z,7.10
2022-07-25T05:43:32.871Z,7.30
2022-07-25T05:46:03.820Z,14.20
2022-07-25T05:48:32.207Z,9.80
2022-07-25T05:51:00.081Z,7.90
2022-07-25T05:53:27.992Z,8.70
2022-07-25T05:55:55.982Z,5.10
2022-07-25T05:58:29.128Z,6.70
2022-07-25T06:00:58.961Z,6.90
2022-07-25T06:03:26.901Z,7.80
2022-07-25T06:05:56.423Z,5.30
2022-07-25T06:08:24.346Z,7.60
2022-07-25T06:10:52.949Z,7.10
2022-07-25T06:13:20.968Z,5.70
2022-07-25T06:15:50.663Z,5.30
2022-07-25T06:18:18.819Z,7.30
2022-07-25T06:20:46.528Z,6.40
2022-07-25T06:23:15.494Z,8.10
2022-07-25T06:25:43.734Z,7.10
2022-07-25T06:28:18.485Z,4.20
2022-07-25T06:30:48.223Z,4.50
2022-07-25T06:33:16.029Z,5.80
2022-07-25T06:35:43.907Z,4.80
2022-07-25T06:38:11.729Z,6.10
2022-07-25T06:40:39.488Z,4.80
2022-07-25T06:43:07.873Z,5.10
2022-07-25T06:45:35.714Z,6.20
2022-07-25T06:48:03.818Z,2.90
2022-07-25T06:50:31.803Z,7.90
2022-07-25T06:52:59.627Z,8.20
2022-07-25T06:55:27.426Z,4.10
2022-07-25T06:57:55.232Z,5.30
2022-07-25T07:00:23.445Z,3.10
2022-07-25T07:03:01.289Z,7.20
2022-07-25T07:05:33.593Z,5.80
2022-07-25T07:08:02.171Z,4.50
2022-07-25T07:10:29.989Z,6.20
2022-07-25T07:13:13.243Z,5.00
2022-07-25T07:15:49.330Z,3.80
2022-07-25T07:18:18.942Z,3.10
2022-07-25T07:20:47.344Z,5.60
2022-07-25T07:23:17.019Z,5.40
2022-07-25T07:25:47.274Z,4.10
2022-07-25T07:28:16.227Z,6.60
2022-07-25T07:31:15.600Z,5.40
2022-07-25T07:33:33.482Z,2.80
2022-07-25T07:36:02.167Z,4.80
2022-07-25T07:38:29.899Z,3.80
2022-07-25T07:40:57.664Z,1.90
2022-07-25T07:43:29.985Z,4.30
2022-07-25T07:46:01.193Z,3.10
2022-07-25T07:48:31.168Z,4.20
2022-07-25T07:51:00.958Z,3.00
2022-07-25T07:54:04.902Z,2.90
2022-07-25T07:56:32.661Z,6.80
2022-07-25T07:59:00.721Z,1.70
2022-07-25T08:01:28.602Z,4.50
2022-07-25T08:03:56.528Z,2.90
2022-07-25T08:06:24.482Z,3.40
2022-07-25T08:08:52.191Z,5.50
2022-07-25T08:11:20.457Z,2.30
2022-07-25T08:13:48.381Z,3.30
2022-07-25T08:16:16.203Z,2.20
2022-07-25T08:18:44.102Z,4.80
2022-07-25T08:21:11.880Z,2.70
2022-07-25T08:23:39.697Z,2.80
2022-07-25T08:26:07.765Z,3.30
2022-07-25T08:28:35.723Z,3.50
2022-07-25T08:31:03.604Z,2.30
2022-07-25T08:33:31.959Z,2.10
2022-07-25T08:36:00.259Z,3.00
2022-07-25T08:38:29.312Z,4.50
2022-07-25T08:40:58.449Z,4.30
2022-07-25T08:43:26.369Z,3.20
2022-07-25T08:45:55.339Z,4.70
2022-07-25T08:48:26.168Z,2.00
2022-07-25T08:50:58.536Z,2.30
2022-07-25T08:53:35.567Z,2.40
2022-07-25T08:56:19.001Z,2.40
2022-07-25T08:58:49.640Z,3.40
2022-07-25T09:01:17.535Z,3.40
2022-07-25T09:03:45.523Z,3.50
2022-07-25T09:06:19.913Z,3.50
2022-07-25T09:09:00.332Z,2.90
2022-07-25T09:11:37.354Z,1.80
2022-07-25T09:14:14.991Z,1.80
2022-07-25T09:16:45.312Z,4.10
2022-07-25T09:19:17.699Z,4.50
2022-07-25T09:21:59.597Z,3.60
2022-07-25T09:24:28.771Z,1.90
2022-07-25T09:27:00.245Z,2.00
2022-07-25T09:29:33.747Z,2.00
2022-07-25T09:32:13.394Z,5.30
2022-07-25T09:34:44.785Z,2.30
2022-07-25T09:37:19.524Z,2.50
2022-07-25T09:39:50.546Z,4.00
2022-07-25T09:42:36.284Z,2.50
2022-07-25T09:45:12.424Z,3.00
2022-07-25T09:47:58.627Z,1.90
2022-07-25T09:50:30.695Z,1.90
2022-07-25T09:53:02.354Z,2.50
2022-07-25T09:55:31.060Z,2.60
2022-07-25T09:57:58.927Z,3.00
2022-07-25T10:00:29.413Z,4.30
2022-07-25T10:03:38.726Z,1.90
2022-07-25T10:06:36.761Z,4.50
2022-07-25T10:09:11.229Z,3.80
2022-07-25T10:11:40.204Z,3.60
2022-07-25T10:14:12.691Z,3.00
2022-07-25T10:16:48.157Z,1.50
2022-07-25T10:19:16.657Z,1.90
2022-07-25T10:21:55.918Z,1.50
2022-07-25T10:24:34.178Z,2.50
2022-07-25T10:27:12.251Z,2.00
2022-07-25T10:29:42.394Z,2.80
2022-07-25T10:32:12.576Z,3.30
2022-07-25T10:34:40.711Z,2.30
2022-07-25T10:37:19.141Z,1.60
2022-07-25T10:39:48.628Z,1.00
2022-07-25T10:42:21.202Z,3.10
2022-07-25T10:44:53.875Z,3.30
2022-07-25T10:47:26.147Z,3.80
2022-07-25T10:52:58.986Z,1.50
2022-07-25T10:55:29.334Z,2.20
2022-07-25T10:58:22.129Z,3.40
2022-07-25T11:00:51.202Z,3.20
2022-07-25T11:03:21.919Z,2.50
2022-07-25T11:05:51.672Z,3.40
2022-07-25T11:08:30.813Z,1.60
2022-07-25T11:10:58.774Z,3.70
2022-07-25T11:13:26.643Z,2.00
2022-07-25T11:15:58.842Z,2.40
2022-07-25T11:21:09.661Z,1.70
2022-07-25T11:23:37.607Z,2.20
2022-07-25T11:26:12.432Z,2.50
2022-07-25T11:28:47.347Z,1.80
2022-07-25T11:31:18.413Z,3.00
2022-07-25T11:33:49.614Z,1.10
2022-07-25T11:36:18.226Z,2.90
2022-07-25T11:38:49.873Z,2.90
2022-07-25T11:41:29.543Z,2.20
2022-07-25T11:43:57.321Z,2.60
2022-07-25T11:46:25.895Z,3.40
2022-07-25T11:49:06.200Z,6.10
2022-07-25T11:51:38.841Z,4.90
2022-07-25T11:56:42.839Z,4.30
2022-07-25T11:59:11.692Z,5.40
2022-07-25T12:01:43.491Z,2.70
2022-07-25T12:04:19.747Z,2.60
2022-07-25T12:06:50.929Z,3.10
2022-07-25T12:09:21.934Z,2.60
2022-07-25T12:11:49.889Z,2.20
2022-07-25T12:14:18.119Z,2.80
2022-07-25T12:16:46.087Z,4.90
2022-07-25T12:19:22.062Z,3.00
2022-07-25T12:21:50.356Z,2.40
2022-07-25T12:24:18.097Z,1.70
2022-07-25T12:26:45.903Z,3.80
2022-07-25T12:29:13.637Z,2.40
2022-07-25T12:31:41.475Z,4.50
2022-07-25T12:34:09.401Z,2.60
2022-07-25T12:36:43.839Z,2.20
2022-07-25T12:39:11.986Z,2.60
2022-07-25T12:41:42.368Z,1.60
2022-07-25T12:44:10.795Z,3.60
2022-07-25T12:46:44.619Z,3.30
2022-07-25T12:49:17.040Z,2.50
2022-07-25T12:51:45.030Z,6.30
2022-07-25T12:54:12.796Z,2.00
2022-07-25T12:56:41.878Z,1.70
2022-07-25T12:59:09.970Z,5.40
2022-07-25T13:01:38.191Z,2.20
2022-07-25T13:04:07.337Z,2.20
2022-07-25T13:06:38.748Z,1.90
2022-07-25T13:09:07.716Z,2.10
2022-07-25T13:11:36.174Z,2.30
2022-07-25T13:14:04.050Z,3.60
2022-07-25T13:16:31.982Z,2.90
2022-07-25T13:18:59.951Z,3.00
2022-07-25T13:21:27.669Z,3.60
2022-07-25T13:23:55.576Z,1.40
2022-07-25T13:26:23.729Z,1.90
2022-07-25T13:28:55.306Z,3.90
2022-07-25T13:31:26.027Z,2.80
2022-07-25T13:33:54.355Z,3.60
2022-07-25T13:36:22.160Z,1.80
2022-07-25T13:38:49.984Z,5.40
2022-07-25T13:41:17.768Z,6.50
2022-07-25T13:43:47.746Z,1.70
2022-07-25T13:46:15.812Z,2.40
2022-07-25T13:48:43.837Z,2.00
2022-07-25T13:51:12.290Z,1.80
2022-07-25T13:53:40.180Z,3.10
2022-07-25T13:56:08.203Z,10.20
2022-07-25T13:58:36.025Z,3.40
2022-07-25T14:01:04.598Z,3.80
2022-07-25T14:03:32.578Z,2.60
2022-07-25T14:06:00.440Z,1.30
2022-07-25T14:08:28.286Z,3.70
2022-07-25T14:10:56.027Z,2.20
2022-07-25T14:13:23.957Z,2.90
2022-07-25T14:15:52.227Z,4.60
2022-07-25T14:18:20.100Z,3.90
2022-07-25T14:20:48.041Z,4.90
2022-07-25T14:23:15.998Z,2.40
2022-07-25T14:25:43.732Z,2.20
2022-07-25T14:28:11.565Z,1.90
2022-07-25T14:30:40.520Z,4.10
2022-07-25T14:33:08.305Z,1.60
2022-07-25T14:35:36.054Z,3.00
2022-07-25T14:38:06.092Z,3.20
2022-07-25T14:40:34.820Z,1.90
2022-07-25T14:43:03.320Z,2.80
2022-07-25T14:45:31.180Z,4.10
2022-07-25T14:47:58.942Z,1.80
2022-07-25T14:50:27.653Z,3.50
2022-07-25T14:52:55.461Z,2.60
2022-07-25T14:55:24.703Z,4.00
2022-07-25T14:57:53.725Z,2.30
2022-07-25T15:00:24.896Z,1.50
2022-07-25T15:02:55.702Z,3.30
2022-07-25T15:05:23.577Z,3.20
2022-07-25T15:07:51.478Z,2.90
2022-07-25T15:10:19.543Z,3.20
2022-07-25T15:12:47.440Z,2.60
2022-07-25T15:15:15.169Z,3.40
2022-07-25T15:17:43.119Z,5.80
2022-07-25T15:20:11.889Z,2.00
2022-07-25T15:22:39.803Z,2.90
2022-07-25T15:27:58.658Z,5.30
2022-07-25T15:30:29.343Z,2.80
2022-07-25T15:32:57.543Z,3.30
2022-07-25T15:35:25.412Z,3.70
2022-07-25T15:37:53.261Z,2.90
2022-07-25T15:40:21.127Z,1.90
2022-07-25T15:42:49.069Z,4.50
2022-07-25T15:45:32.590Z,2.50
2022-07-25T15:48:01.590Z,3.40
2022-07-25T15:50:29.626Z,1.70
2022-07-25T15:52:57.596Z,3.00
2022-07-25T15:55:25.524Z,4.70
2022-07-25T15:57:53.738Z,2.70
2022-07-25T16:00:24.858Z,3.20
2022-07-25T16:02:58.229Z,1.90
2022-07-25T16:05:27.196Z,1.70
2022-07-25T16:07:55.016Z,1.60
2022-07-25T16:10:23.439Z,2.30
2022-07-25T16:12:51.329Z,4.50
2022-07-25T16:15:19.890Z,4.40
2022-07-25T16:17:49.431Z,2.70
2022-07-25T16:20:17.597Z,1.70
2022-07-25T16:22:46.555Z,2.60
2022-07-25T16:25:15.218Z,4.00
2022-07-25T16:27:43.092Z,3.10
2022-07-25T16:30:11.622Z,4.10
2022-07-25T16:32:39.429Z,4.70
2022-07-25T16:35:07.698Z,2.20
2022-07-25T16:37:35.552Z,2.60
2022-07-25T16:40:04.732Z,3.10
2022-07-25T16:42:32.491Z,2.40
2022-07-25T16:45:00.317Z,5.70
2022-07-25T16:47:28.877Z,2.10
2022-07-25T16:49:56.653Z,7.80
2022-07-25T16:52:24.527Z,5.00
2022-07-25T16:54:52.398Z,8.10
2022-07-25T16:57:24.734Z,2.90
2022-07-25T16:59:53.546Z,4.40
2022-07-25T17:02:26.333Z,2.50
2022-07-25T17:04:57.550Z,3.80
2022-07-25T17:07:26.507Z,4.70
2022-07-25T17:09:54.401Z,1.80
2022-07-25T17:12:22.396Z,2.20
2022-07-25T17:14:50.234Z,5.90
2022-07-25T17:17:18.256Z,3.90
2022-07-25T17:19:46.333Z,3.30
2022-07-25T17:22:14.355Z,6.80
2022-07-25T17:24:43.395Z,6.90
2022-07-25T17:27:11.377Z,2.90
2022-07-25T17:29:39.197Z,2.60
2022-07-25T17:32:07.270Z,3.60
2022-07-25T17:34:35.203Z,3.30
2022-07-25T17:37:03.234Z,4.10
2022-07-25T17:39:33.970Z,4.70
2022-07-25T17:42:02.418Z,6.60
2022-07-25T17:44:30.253Z,4.40
2022-07-25T17:46:58.150Z,5.60
2022-07-25T17:49:26.174Z,3.30
2022-07-25T17:51:54.025Z,2.40
2022-07-25T17:54:21.953Z,4.40
2022-07-25T17:56:49.909Z,5.60
2022-07-25T17:59:17.688Z,2.40
2022-07-25T18:01:45.713Z,4.40
2022-07-25T18:04:14.399Z,2.80
2022-07-25T18:06:42.287Z,5.20
2022-07-25T18:09:10.077Z,2.70
2022-07-25T18:11:37.944Z,3.70
2022-07-25T18:14:06.154Z,2.70
2022-07-25T18:16:34.276Z,3.30
2022-07-25T18:19:02.046Z,2.60
2022-07-25T18:21:30.328Z,2.40
2022-07-25T18:23:58.166Z,6.20
2022-07-25T18:26:28.248Z,3.20
2022-07-25T18:28:56.035Z,9.30
2022-07-25T18:31:23.917Z,1.90
2022-07-25T18:33:52.031Z,1.70
2022-07-25T18:36:19.925Z,2.30
2022-07-25T18:38:47.990Z,3.60
2022-07-25T18:41:31.131Z,5.10
2022-07-25T18:43:59.082Z,9.10
2022-07-25T18:46:30.361Z,2.40
2022-07-25T18:48:59.069Z,2.30
2022-07-25T18:51:27.380Z,5.30
2022-07-25T18:53:55.194Z,3.00
2022-07-25T18:56:23.028Z,4.70
2022-07-25T18:58:50.922Z,5.40
2022-07-25T19:01:18.756Z,3.10
2022-07-25T19:03:46.602Z,3.60
2022-07-25T19:06:15.242Z,3.10
2022-07-25T19:08:47.938Z,4.10
2022-07-25T19:11:15.759Z,5.30
2022-07-25T19:13:51.503Z,2.60
2022-07-25T19:16:20.599Z,3.50
2022-07-25T19:18:48.942Z,4.20
2022-07-25T19:21:16.990Z,3.30
2022-07-25T19:23:50.409Z,6.00
2022-07-25T19:26:20.493Z,5.20
2022-07-25T19:28:50.149Z,3.70
2022-07-25T19:31:18.628Z,3.30
2022-07-25T19:33:46.744Z,8.50
2022-07-25T19:36:15.155Z,3.70
2022-07-25T19:38:43.088Z,3.40
2022-07-25T19:41:11.086Z,4.20
2022-07-25T19:43:39.547Z,4.30
2022-07-25T19:46:07.603Z,3.00
2022-07-25T19:48:35.495Z,4.30
2022-07-25T19:51:03.512Z,2.60
2022-07-25T19:53:32.109Z,4.10
2022-07-25T19:56:01.216Z,4.20
2022-07-25T19:58:29.248Z,2.30
2022-07-25T20:00:57.153Z,7.80
2022-07-25T20:03:24.947Z,5.40
2022-07-25T20:05:52.790Z,3.20
2022-07-25T20:08:20.699Z,3.70
2022-07-25T20:10:48.644Z,4.50
2022-07-25T20:13:16.888Z,2.80
2022-07-25T20:15:45.231Z,3.90
2022-07-25T20:18:18.966Z,8.60
2022-07-25T20:20:47.718Z,4.70
2022-07-25T20:23:15.685Z,4.40
2022-07-25T20:25:43.579Z,4.50
2022-07-25T20:28:11.498Z,5.90
2022-07-25T20:30:40.099Z,7.00
2022-07-25T20:33:09.161Z,4.50
2022-07-25T20:35:45.906Z,3.10
2022-07-25T20:38:13.715Z,5.60
2022-07-25T20:40:48.012Z,4.90
2022-07-25T20:43:18.438Z,2.10
2022-07-25T20:45:47.446Z,6.30
2022-07-25T20:48:15.984Z,8.40
2022-07-25T20:50:44.500Z,6.50
2022-07-25T20:53:13.482Z,4.80
2022-07-25T20:55:41.789Z,7.50
2022-07-25T20:58:09.549Z,4.40
2022-07-25T21:00:37.344Z,8.10
2022-07-25T21:03:05.332Z,11.10
2022-07-25T21:05:37.793Z,9.80
2022-07-25T21:08:06.772Z,8.20
2022-07-25T21:10:34.663Z,8.60
2022-07-25T21:13:03.206Z,8.10
2022-07-25T21:15:31.292Z,16.50
2022-07-25T21:17:59.688Z,4.50
2022-07-25T21:20:27.659Z,11.60
2022-07-25T21:22:55.606Z,6.70
2022-07-25T21:25:23.474Z,3.90
2022-07-25T21:27:51.394Z,8.00
2022-07-25T21:30:19.244Z,3.30
2022-07-25T21:32:47.165Z,5.10
2022-07-25T21:35:15.146Z,11.50
2022-07-25T21:37:42.922Z,7.50
2022-07-25T21:40:11.022Z,6.80
2022-07-25T21:42:38.849Z,5.10
2022-07-25T21:45:07.744Z,8.10
2022-07-25T21:47:35.645Z,4.10
2022-07-25T21:50:24.789Z,5.60
2022-07-25T21:52:53.834Z,7.30
2022-07-25T21:55:21.904Z,7.20
2022-07-25T21:57:51.446Z,4.70
2022-07-25T22:00:20.655Z,4.00
2022-07-25T22:02:48.841Z,3.90
2022-07-25T22:05:18.879Z,4.80
2022-07-25T22:07:47.825Z,3.80
2022-07-25T22:10:18.152Z,5.50
2022-07-25T22:12:46.089Z,5.60
2022-07-25T22:15:14.586Z,4.70
2022-07-25T22:17:48.346Z,6.60
2022-07-25T22:20:19.604Z,6.60
2022-07-25T22:22:48.279Z,5.90
2022-07-25T22:25:17.023Z,3.20
2022-07-25T22:27:44.947Z,4.40
2022-07-25T22:30:18.226Z,3.10
2022-07-25T22:32:48.743Z,4.50
2022-07-25T22:35:17.976Z,6.10
2022-07-25T22:37:46.306Z,6.20
2022-07-25T22:40:14.796Z,7.00
2022-07-25T22:42:42.610Z,4.50
2022-07-25T22:45:10.878Z,6.50
2022-07-25T22:47:38.709Z,7.80
2022-07-25T22:50:08.424Z,2.70
2022-07-25T22:52:36.254Z,6.10
2022-07-25T22:55:04.502Z,5.80
2022-07-25T22:57:36.857Z,4.20
2022-07-25T23:00:09.193Z,5.80
2022-07-25T23:02:39.536Z,4.00
2022-07-25T23:05:08.605Z,4.40
2022-07-25T23:07:36.540Z,8.60
2022-07-25T23:10:05.926Z,4.60
2022-07-25T23:12:33.949Z,6.10
2022-07-25T23:15:02.571Z,5.70
2022-07-25T23:17:30.542Z,5.70
2022-07-25T23:19:58.380Z,3.40
2022-07-25T23:22:28.271Z,4.80
2022-07-25T23:24:58.513Z,5.20
2022-07-25T23:27:26.877Z,7.80
2022-07-25T23:29:54.586Z,8.60
2022-07-25T23:32:22.629Z,4.50
2022-07-25T23:34:50.516Z,7.10
2022-07-25T23:37:18.326Z,3.60
2022-07-25T23:39:46.094Z,4.30
2022-07-25T23:42:13.927Z,9.50
2022-07-25T23:44:42.194Z,8.80
2022-07-25T23:47:12.422Z,5.90
2022-07-25T23:49:40.470Z,6.60
2022-07-25T23:52:08.902Z,4.60
2022-07-25T23:54:38.321Z,4.30
2022-07-25T23:57:08.090Z,5.60
2022-07-25T23:59:36.391Z,3.40
